createdAt,value
2019-03-31T00:01:21.773Z,91.50
2019-03-31T00:03:50.444Z,91.60
2019-03-31T00:06:19.134Z,91.70
2019-03-31T00:08:47.822Z,91.70
2019-03-31T00:11:16.488Z,91.50
2019-03-31T00:13:45.286Z,91.70
2019-03-31T00:16:14.057Z,92.00
2019-03-31T00:18:42.749Z,92.10
2019-03-31T00:21:11.424Z,92.00
2019-03-31T00:23:40.112Z,91.80
2019-03-31T00:26:08.788Z,91.70
2019-03-31T00:28:37.489Z,92.20
2019-03-31T00:31:06.876Z,92.10
2019-03-31T00:33:35.549Z,92.10
2019-03-31T00:36:04.244Z,92.10
2019-03-31T00:38:32.920Z,92.20
2019-03-31T00:41:01.916Z,92.50
2019-03-31T00:43:30.587Z,92.20
2019-03-31T00:45:59.284Z,92.10
2019-03-31T00:48:27.964Z,92.30
2019-03-31T00:50:56.648Z,92.40
2019-03-31T00:53:25.322Z,92.30
2019-03-31T00:55:54.030Z,92.70
2019-03-31T00:58:22.708Z,92.70
2019-03-31T01:00:52.978Z,92.60
2019-03-31T01:03:21.773Z,92.80
2019-03-31T01:05:50.444Z,93.00
2019-03-31T01:08:19.145Z,92.90
2019-03-31T01:10:47.815Z,93.00
2019-03-31T01:13:16.509Z,93.10
2019-03-31T01:15:45.182Z,93.10
2019-03-31T01:18:14.377Z,93.20
2019-03-31T01:20:43.648Z,93.20
2019-03-31T01:23:12.348Z,93.20
2019-03-31T01:25:41.020Z,93.10
2019-03-31T01:28:09.688Z,93.10
2019-03-31T01:30:38.385Z,93.20
2019-03-31T01:33:07.051Z,93.20
2019-03-31T01:35:35.762Z,93.40
2019-03-31T01:38:04.438Z,93.30
2019-03-31T01:40:33.129Z,93.30
2019-03-31T01:43:01.812Z,93.50
2019-03-31T01:45:30.506Z,93.30
2019-03-31T01:47:59.178Z,93.40
2019-03-31T01:50:27.877Z,93.50
2019-03-31T01:52:56.553Z,93.50
2019-03-31T01:55:25.232Z,93.70
2019-03-31T01:57:53.935Z,93.60
2019-03-31T02:00:39.189Z,93.60
2019-03-31T02:03:07.872Z,93.60
2019-03-31T02:05:36.552Z,93.50
2019-03-31T02:08:06.444Z,93.60
2019-03-31T02:10:35.124Z,93.30
2019-03-31T02:13:03.824Z,93.40
2019-03-31T02:15:32.525Z,93.40
2019-03-31T02:18:01.215Z,93.30
2019-03-31T02:20:29.910Z,93.20
2019-03-31T02:22:58.586Z,93.00
2019-03-31T02:25:27.285Z,92.90
2019-03-31T02:27:55.969Z,92.70
2019-03-31T02:30:24.654Z,92.70
2019-03-31T02:32:53.334Z,92.70
2019-03-31T02:35:22.026Z,92.80
2019-03-31T02:37:50.706Z,92.70
2019-03-31T02:40:19.398Z,92.80
2019-03-31T02:42:48.085Z,92.60
2019-03-31T02:45:16.762Z,92.40
2019-03-31T02:47:45.460Z,92.50
2019-03-31T02:50:41.076Z,91.90
2019-03-31T02:53:09.873Z,92.40
2019-03-31T02:55:38.546Z,92.40
2019-03-31T02:58:07.240Z,92.30
2019-03-31T03:00:36.829Z,92.50
2019-03-31T03:03:05.510Z,92.40
2019-03-31T03:05:34.910Z,92.70
2019-03-31T03:08:03.687Z,92.60
2019-03-31T03:10:32.374Z,92.70
2019-03-31T03:13:01.050Z,92.70
2019-03-31T03:15:30.848Z,92.60
2019-03-31T03:17:59.524Z,92.60
2019-03-31T03:20:28.236Z,92.50
2019-03-31T03:22:56.904Z,92.40
2019-03-31T03:25:25.591Z,92.40
2019-03-31T03:27:54.289Z,92.40
2019-03-31T03:30:23.011Z,92.40
2019-03-31T03:33:13.353Z,92.40
2019-03-31T03:35:22.099Z,92.60
2019-03-31T03:37:50.766Z,92.70
2019-03-31T03:40:19.441Z,92.90
2019-03-31T03:42:48.132Z,92.90
2019-03-31T03:45:16.801Z,93.00
2019-03-31T03:47:45.504Z,93.00
2019-03-31T03:50:14.206Z,93.00
2019-03-31T03:52:42.880Z,93.10
2019-03-31T03:55:11.567Z,93.20
2019-03-31T03:57:40.243Z,93.20
2019-03-31T04:00:08.934Z,93.20
2019-03-31T04:02:37.614Z,93.20
2019-03-31T04:05:06.715Z,93.10
2019-03-31T04:07:35.382Z,93.00
2019-03-31T04:10:05.644Z,93.00
2019-03-31T04:12:34.306Z,93.00
2019-03-31T04:15:02.998Z,93.10
2019-03-31T04:17:31.695Z,93.00
2019-03-31T04:20:00.576Z,93.00
2019-03-31T04:22:29.354Z,93.00
2019-03-31T04:24:58.041Z,92.90
2019-03-31T04:27:26.735Z,92.90
2019-03-31T04:29:55.428Z,92.90
2019-03-31T04:32:24.101Z,92.90
2019-03-31T04:34:52.800Z,92.90
2019-03-31T04:37:21.462Z,92.90
2019-03-31T04:39:50.153Z,92.90
2019-03-31T04:42:18.824Z,92.90
2019-03-31T04:44:47.527Z,92.80
2019-03-31T04:47:16.223Z,92.80
2019-03-31T04:49:44.908Z,92.70
2019-03-31T04:52:13.597Z,92.70
2019-03-31T04:54:42.275Z,92.70
2019-03-31T04:57:10.964Z,92.70
2019-03-31T04:59:39.666Z,92.70
2019-03-31T05:02:08.431Z,92.60
2019-03-31T05:04:37.132Z,92.70
2019-03-31T05:07:05.800Z,92.70
2019-03-31T05:09:34.488Z,92.70
2019-03-31T05:12:03.156Z,92.70
2019-03-31T05:14:31.867Z,92.60
2019-03-31T05:17:00.541Z,92.70
2019-03-31T05:19:29.214Z,92.50
2019-03-31T05:21:57.908Z,92.50
2019-03-31T05:24:26.581Z,92.50
2019-03-31T05:26:55.281Z,92.50
2019-03-31T05:29:24.052Z,92.40
2019-03-31T05:31:52.757Z,92.10
2019-03-31T05:34:21.428Z,92.20
2019-03-31T05:36:50.126Z,92.10
2019-03-31T05:39:18.817Z,92.10
2019-03-31T05:41:47.497Z,92.00
2019-03-31T05:44:16.219Z,91.80
2019-03-31T05:46:44.882Z,91.70
2019-03-31T05:49:13.601Z,91.60
2019-03-31T05:51:42.284Z,91.50
2019-03-31T05:54:11.058Z,91.50
2019-03-31T05:56:39.889Z,91.60
2019-03-31T05:59:08.612Z,91.60
2019-03-31T06:01:37.288Z,91.70
2019-03-31T06:04:05.961Z,91.70
2019-03-31T06:06:37.067Z,91.70
2019-03-31T06:09:06.205Z,91.20
2019-03-31T06:11:35.020Z,91.10
2019-03-31T06:14:03.700Z,90.90
2019-03-31T06:16:32.450Z,91.10
2019-03-31T06:19:01.213Z,91.20
2019-03-31T06:21:29.933Z,91.20
2019-03-31T06:23:58.612Z,91.10
2019-03-31T06:26:27.288Z,91.10
2019-03-31T06:28:55.984Z,90.90
2019-03-31T06:31:24.693Z,90.90
2019-03-31T06:33:53.391Z,90.90
2019-03-31T06:36:22.073Z,91.00
2019-03-31T06:38:50.877Z,90.80
2019-03-31T06:41:19.553Z,91.00
2019-03-31T06:43:48.399Z,90.80
2019-03-31T06:46:17.133Z,90.50
2019-03-31T06:48:45.892Z,90.00
2019-03-31T06:51:17.080Z,89.20
2019-03-31T06:53:44.960Z,89.00
2019-03-31T06:56:13.641Z,88.60
2019-03-31T06:58:42.392Z,88.00
2019-03-31T07:01:11.142Z,87.50
2019-03-31T07:03:39.802Z,87.90
2019-03-31T07:06:08.503Z,87.80
2019-03-31T07:08:37.165Z,88.50
2019-03-31T07:11:05.912Z,87.60
2019-03-31T07:13:34.644Z,87.60
2019-03-31T07:16:03.329Z,87.20
2019-03-31T07:18:32.024Z,87.50
2019-03-31T07:21:00.737Z,86.70
2019-03-31T07:23:29.450Z,86.90
2019-03-31T07:25:58.116Z,85.10
2019-03-31T07:28:26.814Z,85.60
2019-03-31T07:30:55.492Z,82.70
2019-03-31T07:33:24.165Z,82.00
2019-03-31T07:35:52.872Z,81.70
2019-03-31T07:41:12.985Z,80.60
2019-03-31T07:43:40.062Z,77.90
2019-03-31T07:46:08.758Z,78.30
2019-03-31T07:48:37.457Z,79.00
2019-03-31T07:51:06.152Z,76.80
2019-03-31T07:53:34.828Z,76.90
2019-03-31T07:56:03.545Z,74.50
2019-03-31T07:58:32.275Z,73.00
2019-03-31T08:01:01.093Z,71.30
2019-03-31T08:03:29.799Z,70.20
2019-03-31T08:05:58.478Z,71.30
2019-03-31T08:08:27.182Z,73.70
2019-03-31T08:10:55.855Z,71.70
2019-03-31T08:13:24.545Z,72.70
2019-03-31T08:15:53.214Z,72.90
2019-03-31T08:18:21.890Z,73.50
2019-03-31T08:20:50.577Z,71.80
2019-03-31T08:23:19.259Z,71.30
2019-03-31T08:25:48.001Z,71.50
2019-03-31T08:28:16.734Z,73.70
2019-03-31T08:30:45.424Z,72.00
2019-03-31T08:33:14.096Z,71.80
2019-03-31T08:35:47.564Z,72.60
2019-03-31T08:38:13.206Z,72.50
2019-03-31T08:40:41.873Z,70.90
2019-03-31T08:43:10.569Z,71.90
2019-03-31T08:45:39.245Z,71.30
2019-03-31T08:48:07.941Z,73.10
2019-03-31T08:50:36.605Z,72.60
2019-03-31T08:53:05.302Z,71.80
2019-03-31T08:55:33.972Z,73.30
2019-03-31T08:58:02.649Z,72.70
2019-03-31T09:00:32.906Z,72.80
2019-03-31T09:03:01.564Z,70.60
2019-03-31T09:05:30.253Z,69.10
2019-03-31T09:07:58.927Z,66.20
2019-03-31T09:10:27.627Z,63.90
2019-03-31T09:12:56.292Z,61.00
2019-03-31T09:15:24.976Z,57.20
2019-03-31T09:17:54.395Z,57.30
2019-03-31T09:20:23.260Z,58.30
2019-03-31T09:22:51.960Z,60.60
2019-03-31T09:25:20.628Z,59.40
2019-03-31T09:27:49.324Z,61.40
2019-03-31T09:30:18.002Z,64.20
2019-03-31T09:37:43.450Z,56.10
2019-03-31T09:40:12.123Z,57.30
2019-03-31T09:42:40.811Z,55.40
2019-03-31T09:45:09.496Z,51.80
2019-03-31T09:47:38.869Z,54.00
2019-03-31T09:50:09.962Z,56.10
2019-03-31T09:52:38.634Z,56.80
2019-03-31T09:55:07.626Z,58.30
2019-03-31T09:57:36.314Z,60.90
2019-03-31T10:00:10.177Z,61.60
2019-03-31T10:02:38.844Z,62.40
2019-03-31T10:05:07.937Z,62.10
2019-03-31T10:07:36.626Z,63.30
2019-03-31T10:10:11.576Z,64.10
2019-03-31T10:12:40.272Z,64.10
2019-03-31T10:15:08.944Z,64.40
2019-03-31T10:17:37.636Z,63.30
2019-03-31T10:20:08.008Z,59.10
2019-03-31T10:22:56.056Z,52.50
2019-03-31T10:25:24.724Z,48.40
2019-03-31T10:27:54.048Z,49.30
2019-03-31T10:30:31.091Z,50.50
2019-03-31T10:33:01.363Z,51.10
2019-03-31T10:35:30.026Z,56.80
2019-03-31T10:37:58.949Z,58.40
2019-03-31T10:40:27.738Z,59.00
2019-03-31T10:42:56.426Z,59.30
2019-03-31T10:45:25.111Z,60.10
2019-03-31T10:47:53.852Z,59.90
2019-03-31T10:50:22.616Z,65.00
2019-03-31T10:52:51.288Z,65.20
2019-03-31T10:55:20.044Z,70.30
2019-03-31T10:57:48.751Z,66.70
2019-03-31T11:00:20.624Z,67.50
2019-03-31T11:02:49.289Z,69.50
2019-03-31T11:05:18.066Z,68.30
2019-03-31T11:07:46.835Z,68.40
2019-03-31T11:10:15.602Z,67.40
2019-03-31T11:12:44.349Z,65.10
2019-03-31T11:15:13.064Z,66.60
2019-03-31T11:17:41.742Z,64.70
2019-03-31T11:20:10.468Z,62.40
2019-03-31T11:22:52.907Z,61.90
2019-03-31T11:25:25.340Z,63.70
2019-03-31T11:27:51.980Z,62.20
2019-03-31T11:30:20.743Z,59.50
2019-03-31T11:32:49.432Z,58.50
2019-03-31T11:35:18.124Z,59.10
2019-03-31T11:37:46.813Z,59.90
2019-03-31T11:40:15.516Z,64.20
2019-03-31T11:42:44.229Z,59.30
2019-03-31T11:45:13.412Z,60.00
2019-03-31T11:47:42.127Z,59.00
2019-03-31T11:50:10.798Z,58.00
2019-03-31T11:52:39.506Z,56.30
2019-03-31T11:55:09.196Z,58.20
2019-03-31T11:57:37.855Z,59.00
2019-03-31T12:00:29.024Z,61.80
2019-03-31T12:02:57.730Z,60.50
2019-03-31T12:05:26.422Z,63.00
2019-03-31T12:07:55.089Z,63.70
2019-03-31T12:10:23.788Z,61.90
2019-03-31T12:12:52.484Z,63.70
2019-03-31T12:15:21.686Z,60.70
2019-03-31T12:17:51.781Z,59.40
2019-03-31T12:20:20.474Z,58.90
2019-03-31T12:22:49.177Z,57.40
2019-03-31T12:25:19.818Z,57.50
2019-03-31T12:27:48.525Z,58.40
2019-03-31T12:30:20.339Z,60.80
2019-03-31T12:32:49.019Z,63.20
2019-03-31T12:35:17.699Z,60.20
2019-03-31T12:37:46.372Z,60.60
2019-03-31T12:40:32.443Z,58.80
2019-03-31T12:43:01.109Z,60.90
2019-03-31T12:45:29.812Z,60.30
2019-03-31T12:48:01.253Z,60.00
2019-03-31T12:52:57.403Z,58.60
2019-03-31T12:55:26.075Z,59.60
2019-03-31T12:57:54.755Z,59.80
2019-03-31T13:00:23.428Z,58.20
2019-03-31T13:02:52.131Z,57.80
2019-03-31T13:05:20.810Z,57.50
2019-03-31T13:07:56.236Z,56.80
2019-03-31T13:10:19.924Z,55.80
2019-03-31T13:12:48.600Z,53.70
2019-03-31T13:15:17.307Z,54.20
2019-03-31T13:17:46.096Z,54.40
2019-03-31T13:20:14.819Z,54.50
2019-03-31T13:22:45.821Z,54.70
2019-03-31T13:25:13.876Z,50.90
2019-03-31T13:27:42.556Z,51.50
2019-03-31T13:30:11.265Z,49.80
2019-03-31T13:32:39.958Z,48.70
2019-03-31T13:35:08.816Z,48.50
2019-03-31T13:37:37.752Z,49.50
2019-03-31T13:40:07.335Z,51.00
2019-03-31T13:42:36.073Z,48.80
2019-03-31T13:45:09.016Z,48.80
2019-03-31T13:47:37.725Z,46.10
2019-03-31T13:50:09.231Z,42.20
2019-03-31T13:52:37.950Z,43.50
2019-03-31T13:55:08.193Z,42.60
2019-03-31T13:57:37.540Z,46.50
2019-03-31T14:00:08.491Z,47.80
2019-03-31T14:02:37.240Z,49.30
2019-03-31T14:05:05.951Z,52.00
2019-03-31T14:07:34.645Z,52.40
2019-03-31T14:10:04.770Z,53.80
2019-03-31T14:12:33.577Z,54.50
2019-03-31T14:15:02.291Z,57.10
2019-03-31T14:19:59.359Z,58.30
2019-03-31T14:22:28.043Z,60.90
2019-03-31T14:24:56.773Z,62.50
2019-03-31T14:27:25.464Z,63.00
2019-03-31T14:29:54.169Z,67.00
2019-03-31T14:32:22.877Z,69.10
2019-03-31T14:34:51.553Z,71.30
2019-03-31T14:37:21.433Z,73.30
2019-03-31T14:39:51.450Z,74.70
2019-03-31T14:42:20.178Z,74.10
2019-03-31T14:44:49.216Z,75.40
2019-03-31T14:47:17.920Z,76.70
2019-03-31T14:49:46.607Z,77.20
2019-03-31T14:52:26.796Z,78.30
2019-03-31T14:54:45.683Z,80.90
2019-03-31T14:57:14.387Z,83.30
2019-03-31T14:59:43.108Z,86.10
2019-03-31T15:02:11.803Z,86.80
2019-03-31T15:04:40.512Z,87.10
2019-03-31T15:07:09.204Z,87.50
2019-03-31T15:09:37.930Z,85.00
2019-03-31T15:12:06.623Z,84.30
2019-03-31T15:14:35.376Z,85.30
2019-03-31T15:17:05.109Z,84.50
2019-03-31T15:19:33.809Z,83.10
2019-03-31T15:22:02.507Z,85.50
2019-03-31T15:24:31.202Z,82.00
2019-03-31T15:26:59.927Z,84.20
2019-03-31T15:29:28.633Z,83.90
2019-03-31T15:31:57.357Z,82.60
2019-03-31T15:34:26.046Z,82.60
2019-03-31T15:36:54.771Z,82.80
2019-03-31T15:39:24.060Z,82.30
2019-03-31T15:41:52.783Z,82.40
2019-03-31T15:44:24.069Z,81.90
2019-03-31T15:46:52.790Z,81.10
2019-03-31T15:49:21.529Z,81.50
2019-03-31T15:51:50.237Z,79.90
2019-03-31T15:56:47.337Z,79.10
2019-03-31T15:59:16.064Z,80.10
2019-03-31T16:01:44.761Z,81.00
2019-03-31T16:04:13.483Z,80.30
2019-03-31T16:06:43.311Z,79.90
2019-03-31T16:09:22.722Z,80.50
2019-03-31T16:11:53.251Z,80.60
2019-03-31T16:14:13.108Z,80.60
2019-03-31T16:16:41.830Z,82.30
2019-03-31T16:19:10.557Z,82.20
2019-03-31T16:21:39.295Z,81.70
2019-03-31T16:24:09.355Z,81.60
2019-03-31T16:26:39.596Z,81.80
2019-03-31T16:29:09.848Z,81.30
2019-03-31T16:31:38.582Z,80.40
2019-03-31T16:34:07.289Z,81.30
2019-03-31T16:36:36.005Z,81.30
2019-03-31T16:39:06.217Z,80.90
2019-03-31T16:41:34.950Z,81.20
2019-03-31T16:44:05.177Z,81.30
2019-03-31T16:46:34.744Z,81.70
2019-03-31T16:49:06.218Z,82.30
2019-03-31T16:51:34.865Z,81.70
2019-03-31T16:54:03.565Z,82.70
2019-03-31T16:56:51.616Z,80.60
2019-03-31T16:59:20.284Z,81.30
2019-03-31T17:01:48.950Z,81.60
2019-03-31T17:04:17.648Z,81.10
2019-03-31T17:06:46.308Z,81.10
2019-03-31T17:09:17.318Z,80.80
2019-03-31T17:11:45.997Z,80.00
2019-03-31T17:14:15.490Z,79.80
2019-03-31T17:16:45.627Z,79.40
2019-03-31T17:19:14.888Z,79.30
2019-03-31T17:21:43.576Z,79.60
2019-03-31T17:24:12.245Z,79.60
2019-03-31T17:26:40.940Z,80.10
2019-03-31T17:29:09.678Z,80.20
2019-03-31T17:31:51.693Z,80.70
2019-03-31T17:34:20.381Z,80.60
2019-03-31T17:36:49.071Z,81.00
2019-03-31T17:39:17.900Z,81.60
2019-03-31T17:41:46.599Z,82.10
2019-03-31T17:44:15.330Z,81.70
2019-03-31T17:46:44.036Z,81.90
2019-03-31T17:49:29.627Z,81.60
2019-03-31T17:52:22.029Z,81.90
2019-03-31T17:55:05.317Z,81.80
2019-03-31T17:57:38.138Z,81.10
2019-03-31T18:00:09.467Z,80.90
2019-03-31T18:02:38.392Z,80.70
2019-03-31T18:05:07.775Z,80.80
2019-03-31T18:07:36.469Z,80.80
2019-03-31T18:10:19.900Z,80.50
2019-03-31T18:12:37.227Z,80.70
2019-03-31T18:15:06.902Z,80.10
2019-03-31T18:17:35.610Z,79.40
2019-03-31T18:20:25.178Z,79.10
2019-03-31T18:22:53.860Z,78.40
2019-03-31T18:25:22.519Z,79.20
2019-03-31T18:27:51.247Z,79.50
2019-03-31T18:30:19.921Z,79.70
2019-03-31T18:32:48.596Z,79.70
2019-03-31T18:35:17.293Z,79.50
2019-03-31T18:37:45.950Z,79.50
2019-03-31T18:40:14.997Z,79.50
2019-03-31T18:42:43.612Z,79.20
2019-03-31T18:45:12.305Z,80.10
2019-03-31T18:47:40.979Z,80.10
2019-03-31T18:50:09.751Z,80.20
2019-03-31T18:52:38.445Z,80.40
2019-03-31T18:55:20.352Z,80.40
2019-03-31T18:57:53.348Z,80.30
2019-03-31T19:00:32.134Z,80.20
2019-03-31T19:03:05.353Z,80.50
2019-03-31T19:05:47.767Z,80.30
2019-03-31T19:08:27.246Z,80.70
2019-03-31T19:14:04.443Z,80.60
2019-03-31T19:19:46.193Z,80.50
2019-03-31T19:22:17.457Z,80.10
2019-03-31T19:25:03.990Z,80.40
2019-03-31T19:27:43.191Z,80.60
2019-03-31T19:30:25.464Z,80.10
2019-03-31T19:33:10.685Z,80.20
2019-03-31T19:35:57.340Z,79.90
2019-03-31T19:38:36.596Z,79.60
2019-03-31T19:41:22.777Z,78.60
2019-03-31T19:43:58.736Z,79.10
2019-03-31T19:46:31.716Z,78.80
2019-03-31T19:49:01.980Z,78.60
2019-03-31T19:51:48.137Z,78.80
2019-03-31T19:54:24.073Z,78.70
2019-03-31T19:57:06.224Z,79.10
2019-03-31T19:59:36.509Z,79.10
2019-03-31T20:02:06.758Z,79.20
2019-03-31T20:04:42.668Z,78.90
2019-03-31T20:07:28.146Z,79.30
2019-03-31T20:10:04.088Z,78.70
2019-03-31T20:12:46.420Z,78.40
2019-03-31T20:15:19.844Z,78.80
2019-03-31T20:17:50.097Z,79.00
2019-03-31T20:20:29.413Z,78.90
2019-03-31T20:23:05.374Z,79.20
2019-03-31T20:25:51.852Z,80.20
2019-03-31T20:28:24.855Z,79.10
2019-03-31T20:30:55.120Z,79.30
2019-03-31T20:33:25.366Z,79.60
2019-03-31T20:36:14.827Z,79.50
2019-03-31T20:41:43.019Z,78.90
2019-03-31T20:44:11.688Z,78.50
2019-03-31T20:46:41.924Z,78.70
2019-03-31T20:49:10.613Z,77.60
2019-03-31T20:51:39.400Z,77.50
2019-03-31T20:54:08.099Z,77.40
2019-03-31T20:56:36.756Z,77.80
2019-03-31T20:59:05.439Z,77.00
2019-03-31T21:01:34.116Z,76.90
2019-03-31T21:04:02.807Z,76.90
2019-03-31T21:06:31.469Z,77.20
2019-03-31T21:09:00.164Z,77.20
2019-03-31T21:11:28.869Z,78.10
2019-03-31T21:13:57.532Z,77.30
2019-03-31T21:16:26.228Z,77.40
2019-03-31T21:18:54.893Z,77.70
2019-03-31T21:21:23.580Z,77.50
2019-03-31T21:23:52.254Z,77.20
2019-03-31T21:26:20.943Z,77.60
2019-03-31T21:28:49.630Z,77.20
2019-03-31T21:31:18.292Z,77.20
2019-03-31T21:33:46.985Z,77.00
2019-03-31T21:36:15.662Z,77.00
2019-03-31T21:38:47.108Z,77.10
2019-03-31T21:41:18.247Z,76.50
2019-03-31T21:43:50.013Z,75.90
2019-03-31T21:49:09.304Z,76.30
2019-03-31T21:51:37.974Z,76.50
2019-03-31T21:54:07.608Z,75.80
2019-03-31T21:56:36.279Z,75.90
2019-03-31T21:59:04.960Z,76.10
2019-03-31T22:01:33.650Z,75.60
2019-03-31T22:04:02.321Z,75.40
2019-03-31T22:06:31.018Z,76.00
2019-03-31T22:08:59.687Z,76.10
2019-03-31T22:11:28.378Z,75.80
2019-03-31T22:13:57.044Z,75.70
2019-03-31T22:16:25.734Z,76.10
2019-03-31T22:18:54.393Z,75.90
2019-03-31T22:21:23.077Z,75.80
2019-03-31T22:23:57.835Z,76.00
2019-03-31T22:26:22.101Z,76.10
2019-03-31T22:28:50.806Z,75.50
2019-03-31T22:31:19.532Z,75.30
2019-03-31T22:33:48.217Z,75.00
2019-03-31T22:39:11.773Z,75.50
2019-03-31T22:41:40.444Z,75.60
2019-03-31T22:44:09.146Z,75.50
2019-03-31T22:46:37.807Z,75.60
2019-03-31T22:49:06.500Z,76.60
2019-03-31T22:51:35.164Z,76.80
2019-03-31T22:54:03.850Z,76.90
2019-03-31T22:56:32.521Z,77.20
2019-03-31T22:59:01.216Z,77.50
2019-03-31T23:01:29.904Z,77.50
2019-03-31T23:03:58.567Z,77.10
2019-03-31T23:06:27.262Z,76.40
2019-03-31T23:08:55.924Z,76.60
2019-03-31T23:11:24.612Z,76.60
2019-03-31T23:13:53.284Z,76.60
2019-03-31T23:16:21.982Z,76.20
2019-03-31T23:18:50.652Z,75.90
2019-03-31T23:21:19.340Z,75.20
2019-03-31T23:23:48.015Z,75.30
2019-03-31T23:26:16.684Z,75.50
2019-03-31T23:28:48.115Z,75.70
2019-03-31T23:31:17.181Z,75.80
2019-03-31T23:33:45.869Z,76.20
2019-03-31T23:36:14.537Z,76.40
2019-03-31T23:39:02.617Z,76.30
2019-03-31T23:41:31.306Z,76.50
2019-03-31T23:44:00.005Z,76.10
2019-03-31T23:46:28.688Z,76.00
2019-03-31T23:48:57.375Z,76.00
2019-03-31T23:51:26.064Z,76.30
2019-03-31T23:53:54.736Z,76.20
2019-03-31T23:56:23.442Z,76.10
2019-03-31T23:58:52.104Z,76.10
